createdAt,value
2024-02-02T00:01:12.456Z,98307.03
2024-02-02T00:03:40.388Z,98296.78
2024-02-02T00:06:09.000Z,98296.81
2024-02-02T00:08:36.852Z,98287.41
2024-02-02T00:11:06.317Z,98290.84
2024-02-02T00:13:34.144Z,98291.72
2024-02-02T00:16:01.241Z,98294.28
2024-02-02T00:18:28.884Z,98294.25
2024-02-02T00:20:55.946Z,98292.53
2024-02-02T00:23:25.328Z,98291.72
2024-02-02T00:25:52.812Z,98284.91
2024-02-02T00:28:21.708Z,98298.56
2024-02-02T00:30:48.838Z,98292.59
2024-02-02T00:33:16.498Z,98301.13
2024-02-02T00:35:44.107Z,98302.88
2024-02-02T00:38:12.668Z,98305.44
2024-02-02T00:40:39.917Z,98293.47
2024-02-02T00:43:07.210Z,98298.63
2024-02-02T00:45:36.423Z,98290.06
2024-02-02T00:48:05.960Z,98306.28
2024-02-02T00:50:35.021Z,98309.72
2024-02-02T00:53:01.971Z,98315.69
2024-02-02T00:55:31.215Z,98311.44
2024-02-02T00:57:58.757Z,98318.25
2024-02-02T01:00:26.201Z,98305.44
2024-02-02T01:02:55.474Z,98313.13
2024-02-02T01:05:23.081Z,98308.84
2024-02-02T01:07:50.209Z,98323.38
2024-02-02T01:10:17.534Z,98319.97
2024-02-02T01:12:45.289Z,98321.66
2024-02-02T01:15:12.899Z,98318.25
2024-02-02T01:17:41.962Z,98317.38
2024-02-02T01:20:14.036Z,98318.22
2024-02-02T01:22:44.157Z,98321.63
2024-02-02T01:25:11.963Z,98321.63
2024-02-02T01:27:40.391Z,98325.06
2024-02-02T01:30:09.714Z,98320.78
2024-02-02T01:32:37.057Z,98311.38
2024-02-02T01:35:04.634Z,98315.66
2024-02-02T01:37:33.878Z,98314.81
2024-02-02T01:40:01.350Z,98315.66
2024-02-02T01:42:28.740Z,98317.38
2024-02-02T01:44:57.465Z,98324.16
2024-02-02T01:47:24.674Z,98319.91
2024-02-02T01:49:52.186Z,98323.31
2024-02-02T01:52:19.503Z,98319.91
2024-02-02T01:54:50.164Z,98319.91
2024-02-02T01:57:17.430Z,98313.06
2024-02-02T01:59:44.957Z,98302.78
2024-02-02T02:02:12.115Z,98321.53
2024-02-02T02:04:41.081Z,98304.50
2024-02-02T02:07:08.906Z,98303.63
2024-02-02T02:09:36.526Z,98313.88
2024-02-02T02:12:08.365Z,98314.75
2024-02-02T02:14:35.913Z,98313.06
2024-02-02T02:17:04.008Z,98317.38
2024-02-02T02:19:31.679Z,98310.53
2024-02-02T02:22:01.121Z,98324.25
2024-02-02T02:24:28.841Z,98323.38
2024-02-02T02:26:56.439Z,98315.69
2024-02-02T02:29:26.158Z,98302.91
2024-02-02T02:31:53.859Z,98299.50
2024-02-02T02:34:22.957Z,98313.16
2024-02-02T02:36:50.645Z,98322.56
2024-02-02T02:39:20.206Z,98315.72
2024-02-02T02:41:47.422Z,98315.72
2024-02-02T02:44:14.692Z,98301.25
2024-02-02T02:46:42.316Z,98303.78
2024-02-02T02:49:09.653Z,98299.53
2024-02-02T02:51:37.256Z,98296.97
2024-02-02T02:54:04.844Z,98298.69
2024-02-02T02:56:33.652Z,98298.69
2024-02-02T02:59:03.148Z,98290.13
2024-02-02T03:01:30.589Z,98296.13
2024-02-02T03:03:57.877Z,98297.81
2024-02-02T03:06:25.106Z,98306.34
2024-02-02T03:08:52.609Z,98296.97
2024-02-02T03:11:19.937Z,98304.66
2024-02-02T03:13:49.496Z,98298.69
2024-02-02T03:16:16.640Z,98291.00
2024-02-02T03:18:45.721Z,98295.25
2024-02-02T03:21:13.835Z,98289.31
2024-02-02T03:23:40.966Z,98284.19
2024-02-02T03:26:08.635Z,98291.88
2024-02-02T03:28:35.929Z,98291.88
2024-02-02T03:31:08.157Z,98299.53
2024-02-02T03:33:36.009Z,98308.06
2024-02-02T03:36:03.256Z,98299.53
2024-02-02T03:38:30.856Z,98295.28
2024-02-02T03:40:58.114Z,98292.72
2024-02-02T03:43:25.679Z,98299.53
2024-02-02T03:45:52.926Z,98290.16
2024-02-02T03:48:22.304Z,98298.66
2024-02-02T03:50:49.515Z,98298.66
2024-02-02T03:53:17.003Z,98301.22
2024-02-02T03:55:45.983Z,98309.72
2024-02-02T03:58:14.871Z,98323.38
2024-02-02T04:00:42.432Z,98334.44
2024-02-02T04:03:09.822Z,98333.56
2024-02-02T04:05:39.078Z,98325.03
2024-02-02T04:08:07.618Z,98328.47
2024-02-02T04:10:34.869Z,98335.25
2024-02-02T04:13:02.114Z,98333.53
2024-02-02T04:15:32.919Z,98337.75
2024-02-02T04:18:04.168Z,98345.41
2024-02-02T04:20:31.606Z,98343.72
2024-02-02T04:23:01.018Z,98348.84
2024-02-02T04:25:28.520Z,98336.91
2024-02-02T04:27:56.297Z,98332.63
2024-02-02T04:30:23.614Z,98321.56
2024-02-02T04:32:51.325Z,98334.34
2024-02-02T04:35:18.895Z,98327.53
2024-02-02T04:37:47.211Z,98336.06
2024-02-02T04:40:16.251Z,98330.06
2024-02-02T04:42:45.554Z,98326.69
2024-02-02T04:45:13.062Z,98330.06
2024-02-02T04:47:40.481Z,98342.84
2024-02-02T04:50:08.405Z,98337.72
2024-02-02T04:52:35.959Z,98347.94
2024-02-02T04:55:03.730Z,98341.94
2024-02-02T04:57:32.920Z,98337.72
2024-02-02T05:00:00.688Z,98364.13
2024-02-02T05:02:27.872Z,98355.59
2024-02-02T05:04:54.969Z,98354.72
2024-02-02T05:07:22.192Z,98357.25
2024-02-02T05:09:49.251Z,98352.16
2024-02-02T05:12:17.078Z,98352.16
2024-02-02T05:14:47.905Z,98358.13
2024-02-02T05:17:15.186Z,98365.75
2024-02-02T05:19:42.783Z,98358.91
2024-02-02T05:22:10.087Z,98367.44
2024-02-02T05:24:45.076Z,98362.31
2024-02-02T05:27:14.050Z,98367.44
2024-02-02T05:29:41.781Z,98370.00
2024-02-02T05:32:10.995Z,98378.53
2024-02-02T05:34:38.685Z,98373.41
2024-02-02T05:37:05.965Z,98370.84
2024-02-02T05:39:33.635Z,98368.31
2024-02-02T05:42:01.733Z,98369.13
2024-02-02T05:44:29.303Z,98368.31
2024-02-02T05:46:56.834Z,98361.50
2024-02-02T05:49:26.826Z,98358.94
2024-02-02T05:51:54.495Z,98361.53
2024-02-02T05:54:23.742Z,98362.38
2024-02-02T05:56:51.968Z,98375.19
2024-02-02T05:59:19.140Z,98370.09
2024-02-02T06:01:47.084Z,98366.69
2024-02-02T06:04:14.696Z,98365.84
2024-02-02T06:06:43.831Z,98371.81
2024-02-02T06:09:11.329Z,98377.75
2024-02-02T06:11:39.202Z,98380.28
2024-02-02T06:14:07.096Z,98379.44
2024-02-02T06:16:34.462Z,98388.84
2024-02-02T06:19:01.668Z,98383.69
2024-02-02T06:21:29.466Z,98383.72
2024-02-02T06:23:58.897Z,98385.41
2024-02-02T06:26:26.318Z,98399.03
2024-02-02T06:28:53.796Z,98389.72
2024-02-02T06:31:20.933Z,98387.97
2024-02-02T06:33:49.138Z,98393.94
2024-02-02T06:36:17.161Z,98388.00
2024-02-02T06:38:44.504Z,98405.91
2024-02-02T06:41:13.266Z,98414.44
2024-02-02T06:43:40.442Z,98417.00
2024-02-02T06:46:08.019Z,98423.88
2024-02-02T06:48:36.171Z,98423.91
2024-02-02T06:51:05.397Z,98424.78
2024-02-02T06:53:32.749Z,98427.34
2024-02-02T06:56:00.488Z,98438.47
2024-02-02T06:58:44.298Z,98450.44
2024-02-02T07:01:12.571Z,98435.09
2024-02-02T07:03:41.627Z,98443.66
2024-02-02T07:06:13.479Z,98443.66
2024-02-02T07:08:41.035Z,98457.34
2024-02-02T07:11:43.644Z,98444.56
2024-02-02T07:14:34.115Z,98460.81
2024-02-02T07:17:03.248Z,98459.97
2024-02-02T07:19:41.571Z,98459.97
2024-02-02T07:22:23.327Z,98456.53
2024-02-02T07:24:51.209Z,98465.94
2024-02-02T07:27:29.543Z,98469.34
2024-02-02T07:29:58.620Z,98473.63
2024-02-02T07:32:27.418Z,98477.03
2024-02-02T07:34:57.770Z,98486.44
2024-02-02T07:37:46.467Z,98477.88
2024-02-02T07:40:53.374Z,98469.28
2024-02-02T07:43:21.137Z,98460.72
2024-02-02T07:45:49.986Z,98459.00
2024-02-02T07:48:17.732Z,98455.53
2024-02-02T07:50:46.905Z,98472.63
2024-02-02T07:53:14.049Z,98461.50
2024-02-02T07:55:41.582Z,98464.88
2024-02-02T07:58:09.612Z,98462.31
2024-02-02T08:00:37.325Z,98468.28
2024-02-02T08:03:10.565Z,98456.34
2024-02-02T08:05:40.216Z,98467.44
2024-02-02T08:08:07.924Z,98457.13
2024-02-02T08:10:35.819Z,98440.84
2024-02-02T08:13:04.361Z,98464.75
2024-02-02T08:15:32.166Z,98451.84
2024-02-02T08:18:02.011Z,98456.06
2024-02-02T08:20:33.511Z,98449.22
2024-02-02T08:23:01.264Z,98460.31
2024-02-02T08:25:31.279Z,98459.47
2024-02-02T08:27:59.239Z,98460.22
2024-02-02T08:30:26.839Z,98443.84
2024-02-02T08:32:54.536Z,98435.09
2024-02-02T08:35:24.930Z,98453.75
2024-02-02T08:37:58.620Z,98446.69
2024-02-02T08:40:36.685Z,98439.63
2024-02-02T08:43:05.555Z,98434.78
2024-02-02T08:46:14.747Z,98433.38
2024-02-02T08:48:44.513Z,98422.69
2024-02-02T08:51:53.231Z,98412.06
2024-02-02T08:54:50.119Z,98418.34
2024-02-02T08:57:37.302Z,98425.25
2024-02-02T09:00:28.973Z,98425.94
2024-02-02T09:03:06.530Z,98418.25
2024-02-02T09:06:16.602Z,98418.47
2024-02-02T09:08:44.074Z,98424.25
2024-02-02T09:11:21.605Z,98421.38
2024-02-02T09:13:50.085Z,98419.72
2024-02-02T09:16:19.305Z,98415.81
2024-02-02T09:18:55.112Z,98412.19
2024-02-02T09:21:29.794Z,98415.84
2024-02-02T09:23:57.135Z,98416.28
2024-02-02T09:26:36.827Z,98426.91
2024-02-02T09:29:04.610Z,98414.19
2024-02-02T09:31:34.088Z,98407.47
2024-02-02T09:34:06.422Z,98406.38
2024-02-02T09:36:33.860Z,98405.53
2024-02-02T09:39:06.226Z,98404.72
2024-02-02T09:42:08.852Z,98398.06
2024-02-02T09:44:57.209Z,98413.56
2024-02-02T09:47:46.018Z,98409.56
2024-02-02T09:50:33.836Z,98400.63
2024-02-02T09:53:49.154Z,98398.13
2024-02-02T09:56:26.154Z,98394.97
2024-02-02T09:59:00.447Z,98403.16
2024-02-02T10:01:49.815Z,98395.84
2024-02-02T10:04:32.536Z,98403.28
2024-02-02T10:07:13.297Z,98393.56
2024-02-02T10:09:59.703Z,98394.38
2024-02-02T10:12:36.850Z,98393.19
2024-02-02T10:15:32.534Z,98388.91
2024-02-02T10:18:19.713Z,98388.16
2024-02-02T10:20:54.059Z,98390.22
2024-02-02T10:23:46.812Z,98380.66
2024-02-02T10:26:30.716Z,98379.75
2024-02-02T10:29:05.649Z,98369.38
2024-02-02T10:31:41.962Z,98360.56
2024-02-02T10:34:32.765Z,98354.16
2024-02-02T10:37:16.238Z,98352.69
2024-02-02T10:40:03.446Z,98360.41
2024-02-02T10:42:44.954Z,98358.81
2024-02-02T10:45:20.323Z,98355.78
2024-02-02T10:48:00.084Z,98354.22
2024-02-02T10:50:41.589Z,98350.34
2024-02-02T10:53:19.869Z,98350.72
2024-02-02T10:56:04.050Z,98345.34
2024-02-02T10:58:40.084Z,98338.22
2024-02-02T11:01:15.703Z,98331.63
2024-02-02T11:03:53.813Z,98332.63
2024-02-02T11:06:30.335Z,98326.28
2024-02-02T11:09:09.177Z,98314.31
2024-02-02T11:11:43.108Z,98317.69
2024-02-02T11:14:25.499Z,98302.78
2024-02-02T11:17:00.753Z,98309.47
2024-02-02T11:19:52.272Z,98303.44
2024-02-02T11:22:26.672Z,98304.88
2024-02-02T11:25:01.524Z,98302.72
2024-02-02T11:27:38.848Z,98289.31
2024-02-02T11:30:07.701Z,98278.22
2024-02-02T11:33:01.535Z,98276.34
2024-02-02T11:35:35.461Z,98272.66
2024-02-02T11:38:25.867Z,98276.47
2024-02-02T11:40:54.089Z,98280.84
2024-02-02T11:43:22.850Z,98280.00
2024-02-02T11:45:54.077Z,98275.19
2024-02-02T11:48:32.156Z,98269.13
2024-02-02T11:51:01.313Z,98279.22
2024-02-02T11:53:37.982Z,98273.91
2024-02-02T11:56:11.410Z,98270.28
2024-02-02T11:58:42.202Z,98264.03
2024-02-02T12:01:27.597Z,98276.16
2024-02-02T12:04:11.480Z,98274.59
2024-02-02T12:06:46.732Z,98260.59
2024-02-02T12:09:23.611Z,98256.88
2024-02-02T12:11:55.044Z,98247.44
2024-02-02T12:14:30.722Z,98240.03
2024-02-02T12:17:00.116Z,98238.47
2024-02-02T12:19:28.570Z,98236.94
2024-02-02T12:21:56.375Z,98230.50
2024-02-02T12:24:26.006Z,98246.84
2024-02-02T12:26:53.258Z,98234.72
2024-02-02T12:29:20.536Z,98239.44
2024-02-02T12:31:48.171Z,98243.34
2024-02-02T12:34:16.524Z,98249.25
2024-02-02T12:36:44.212Z,98251.59
2024-02-02T12:39:12.032Z,98257.97
2024-02-02T12:41:41.574Z,98252.31
2024-02-02T12:44:08.936Z,98247.69
2024-02-02T12:46:43.437Z,98250.66
2024-02-02T12:49:11.345Z,98235.16
2024-02-02T12:51:40.615Z,98237.34
2024-02-02T12:54:10.237Z,98237.09
2024-02-02T12:56:38.129Z,98236.38
2024-02-02T12:59:07.651Z,98228.00
2024-02-02T13:01:35.787Z,98227.91
2024-02-02T13:04:03.608Z,98228.78
2024-02-02T13:06:31.414Z,98236.00
2024-02-02T13:09:25.263Z,98226.69
2024-02-02T13:11:54.151Z,98234.13
2024-02-02T13:14:34.877Z,98234.34
2024-02-02T13:17:10.088Z,98230.13
2024-02-02T13:19:40.672Z,98233.19
2024-02-02T13:22:18.537Z,98239.56
2024-02-02T13:24:52.794Z,98231.47
2024-02-02T13:27:27.855Z,98220.28
2024-02-02T13:30:00.769Z,98225.88
2024-02-02T13:32:30.913Z,98215.69
2024-02-02T13:34:59.850Z,98210.59
2024-02-02T13:37:27.421Z,98207.66
2024-02-02T13:39:55.852Z,98200.38
2024-02-02T13:42:24.980Z,98205.28
2024-02-02T13:44:52.500Z,98198.59
2024-02-02T13:47:23.109Z,98211.41
2024-02-02T13:50:00.808Z,98214.03
2024-02-02T13:52:29.529Z,98213.94
2024-02-02T13:54:56.745Z,98213.22
2024-02-02T13:57:25.082Z,98202.47
2024-02-02T13:59:55.816Z,98197.78
2024-02-02T14:02:24.904Z,98196.28
2024-02-02T14:04:53.777Z,98198.56
2024-02-02T14:07:21.583Z,98200.69
2024-02-02T14:10:01.155Z,98193.72
2024-02-02T14:12:28.895Z,98197.72
2024-02-02T14:14:58.007Z,98195.84
2024-02-02T14:17:27.984Z,98186.81
2024-02-02T14:20:02.322Z,98181.69
2024-02-02T14:22:30.142Z,98184.06
2024-02-02T14:24:57.582Z,98190.09
2024-02-02T14:27:35.560Z,98189.06
2024-02-02T14:30:05.006Z,98179.88
2024-02-02T14:32:34.510Z,98196.69
2024-02-02T14:35:03.186Z,98199.53
2024-02-02T14:37:30.651Z,98195.56
2024-02-02T14:39:58.101Z,98193.31
2024-02-02T14:42:25.349Z,98189.31
2024-02-02T14:44:52.978Z,98179.44
2024-02-02T14:47:20.676Z,98177.94
2024-02-02T14:49:50.173Z,98173.06
2024-02-02T14:52:18.030Z,98167.72
2024-02-02T14:54:45.604Z,98167.97
2024-02-02T14:57:13.313Z,98177.72
2024-02-02T14:59:40.668Z,98180.13
2024-02-02T15:02:08.214Z,98174.19
2024-02-02T15:04:35.828Z,98176.16
2024-02-02T15:07:05.526Z,98178.31
2024-02-02T15:09:33.349Z,98180.63
2024-02-02T15:12:05.133Z,98173.31
2024-02-02T15:14:33.055Z,98172.47
2024-02-02T15:17:00.294Z,98177.59
2024-02-02T15:19:27.688Z,98186.00
2024-02-02T15:21:54.956Z,98180.09
2024-02-02T15:24:23.762Z,98187.84
2024-02-02T15:26:50.941Z,98181.75
2024-02-02T15:29:18.377Z,98187.13
2024-02-02T15:31:45.424Z,98179.66
2024-02-02T15:34:13.108Z,98183.38
2024-02-02T15:36:40.331Z,98188.72
2024-02-02T15:39:19.906Z,98180.03
2024-02-02T15:41:57.366Z,98188.94
2024-02-02T15:44:25.491Z,98178.78
2024-02-02T15:46:52.507Z,98200.25
2024-02-02T15:49:30.116Z,98209.16
2024-02-02T15:52:00.026Z,98212.91
2024-02-02T15:54:29.215Z,98206.63
2024-02-02T15:57:01.151Z,98210.84
2024-02-02T15:59:29.852Z,98217.22
2024-02-02T16:01:57.289Z,98210.63
2024-02-02T16:04:25.576Z,98217.59
2024-02-02T16:07:02.126Z,98217.44
2024-02-02T16:09:29.423Z,98215.66
2024-02-02T16:11:58.757Z,98218.31
2024-02-02T16:14:26.005Z,98223.50
2024-02-02T16:16:53.233Z,98211.50
2024-02-02T16:19:20.470Z,98196.13
2024-02-02T16:21:50.238Z,98191.97
2024-02-02T16:24:18.257Z,98209.63
2024-02-02T16:26:46.096Z,98205.75
2024-02-02T16:29:15.322Z,98210.47
2024-02-02T16:31:47.594Z,98212.88
2024-02-02T16:34:15.004Z,98209.28
2024-02-02T16:36:43.760Z,98206.03
2024-02-02T16:39:11.477Z,98199.41
2024-02-02T16:41:39.527Z,98212.69
2024-02-02T16:44:07.715Z,98206.22
2024-02-02T16:46:40.164Z,98199.47
2024-02-02T16:49:07.936Z,98209.81
2024-02-02T16:51:37.546Z,98218.97
2024-02-02T16:54:06.821Z,98207.06
2024-02-02T16:56:33.909Z,98212.44
2024-02-02T16:59:01.734Z,98213.66
2024-02-02T17:01:29.300Z,98206.03
2024-02-02T17:03:59.112Z,98203.66
2024-02-02T17:06:29.406Z,98204.66
2024-02-02T17:08:57.002Z,98196.00
2024-02-02T17:11:24.378Z,98197.69
2024-02-02T17:13:51.518Z,98203.03
2024-02-02T17:16:20.200Z,98199.66
2024-02-02T17:18:48.117Z,98199.56
2024-02-02T17:21:17.313Z,98214.00
2024-02-02T17:23:44.427Z,98200.03
2024-02-02T17:26:15.741Z,98199.22
2024-02-02T17:28:43.811Z,98195.78
2024-02-02T17:31:11.556Z,98187.78
2024-02-02T17:33:40.561Z,98195.38
2024-02-02T17:36:12.671Z,98198.00
2024-02-02T17:38:42.870Z,98199.66
2024-02-02T17:41:13.509Z,98194.41
2024-02-02T17:43:42.783Z,98190.13
2024-02-02T17:46:13.609Z,98174.69
2024-02-02T17:48:41.256Z,98173.16
2024-02-02T17:51:08.667Z,98177.44
2024-02-02T17:53:38.439Z,98175.16
2024-02-02T17:56:08.781Z,98178.06
2024-02-02T17:58:39.512Z,98190.97
2024-02-02T18:01:07.909Z,98188.50
2024-02-02T18:03:36.126Z,98178.09
2024-02-02T18:06:04.199Z,98161.63
2024-02-02T18:08:33.170Z,98164.06
2024-02-02T18:11:01.582Z,98162.81
2024-02-02T18:13:31.374Z,98153.34
2024-02-02T18:15:58.897Z,98152.41
2024-02-02T18:18:26.589Z,98155.03
2024-02-02T18:20:53.990Z,98133.66
2024-02-02T18:23:21.492Z,98129.53
2024-02-02T18:25:48.741Z,98125.38
2024-02-02T18:28:16.406Z,98123.75
2024-02-02T18:30:48.353Z,98131.72
2024-02-02T18:33:15.866Z,98130.22
2024-02-02T18:35:43.909Z,98137.38
2024-02-02T18:38:11.520Z,98128.25
2024-02-02T18:40:39.246Z,98128.66
2024-02-02T18:43:06.729Z,98122.13
2024-02-02T18:45:33.899Z,98106.94
2024-02-02T18:48:03.494Z,98103.66
2024-02-02T18:50:30.978Z,98114.28
2024-02-02T18:52:58.610Z,98114.66
2024-02-02T18:55:25.824Z,98114.06
2024-02-02T18:57:53.270Z,98103.16
2024-02-02T19:00:21.028Z,98100.75
2024-02-02T19:02:48.369Z,98110.31
2024-02-02T19:05:17.517Z,98124.03
2024-02-02T19:07:45.356Z,98123.00
2024-02-02T19:10:12.998Z,98107.25
2024-02-02T19:12:41.695Z,98095.09
2024-02-02T19:15:09.363Z,98096.69
2024-02-02T19:17:36.753Z,98085.59
2024-02-02T19:20:04.463Z,98082.25
2024-02-02T19:22:33.423Z,98084.97
2024-02-02T19:25:01.811Z,98088.47
2024-02-02T19:27:30.919Z,98080.00
2024-02-02T19:29:58.474Z,98069.88
2024-02-02T19:32:26.510Z,98077.63
2024-02-02T19:34:53.745Z,98069.19
2024-02-02T19:37:21.389Z,98069.38
2024-02-02T19:39:53.171Z,98072.13
2024-02-02T19:42:20.826Z,98073.16
2024-02-02T19:44:48.527Z,98081.91
2024-02-02T19:47:16.837Z,98077.97
2024-02-02T19:49:44.598Z,98068.75
2024-02-02T19:52:11.733Z,98056.94
2024-02-02T19:54:39.266Z,98073.41
2024-02-02T19:57:08.832Z,98062.38
2024-02-02T19:59:36.436Z,98060.78
2024-02-02T20:02:03.665Z,98055.84
2024-02-02T20:04:32.231Z,98048.13
2024-02-02T20:06:59.926Z,98043.94
2024-02-02T20:09:27.097Z,98046.56
2024-02-02T20:11:55.665Z,98040.72
2024-02-02T20:14:25.120Z,98045.22
2024-02-02T20:16:53.057Z,98050.50
2024-02-02T20:19:20.868Z,98045.41
2024-02-02T20:21:48.461Z,98048.06
2024-02-02T20:24:16.939Z,98028.50
2024-02-02T20:26:44.507Z,98037.16
2024-02-02T20:29:11.751Z,98027.84
2024-02-02T20:31:43.826Z,98030.50
2024-02-02T20:34:14.539Z,98020.22
2024-02-02T20:36:43.282Z,98023.75
2024-02-02T20:39:10.812Z,98008.47
2024-02-02T20:41:38.678Z,98013.59
2024-02-02T20:44:05.952Z,98005.09
2024-02-02T20:46:33.645Z,98008.63
2024-02-02T20:49:03.638Z,98014.63
2024-02-02T20:51:31.290Z,97995.78
2024-02-02T20:53:58.554Z,98001.94
2024-02-02T20:56:26.010Z,97993.56
2024-02-02T20:58:53.671Z,97986.94
2024-02-02T21:01:21.713Z,97997.41
2024-02-02T21:03:49.033Z,97978.69
2024-02-02T21:06:19.285Z,97987.25
2024-02-02T21:08:46.427Z,97979.59
2024-02-02T21:11:13.854Z,97986.59
2024-02-02T21:13:41.014Z,97990.91
2024-02-02T21:16:08.237Z,97988.34
2024-02-02T21:18:38.130Z,97978.16
2024-02-02T21:21:05.617Z,97980.00
2024-02-02T21:23:37.332Z,97964.59
2024-02-02T21:26:05.168Z,97977.41
2024-02-02T21:28:32.308Z,97970.56
2024-02-02T21:31:00.185Z,97964.66
2024-02-02T21:33:27.752Z,97962.94
2024-02-02T21:35:55.485Z,97959.56
2024-02-02T21:38:22.594Z,97961.31
2024-02-02T21:40:51.560Z,97950.19
2024-02-02T21:43:18.895Z,97959.63
2024-02-02T21:45:46.285Z,97958.88
2024-02-02T21:48:13.539Z,97945.34
2024-02-02T21:50:40.727Z,97943.69
2024-02-02T21:53:11.716Z,97947.09
2024-02-02T21:55:38.813Z,97950.59
2024-02-02T21:58:07.729Z,97945.50
2024-02-02T22:00:35.080Z,97945.47
2024-02-02T22:03:02.413Z,97939.50
2024-02-02T22:05:29.924Z,97938.72
2024-02-02T22:07:57.089Z,97938.72
2024-02-02T22:10:24.296Z,97931.88
2024-02-02T22:12:51.711Z,97946.38
2024-02-02T22:15:21.521Z,97928.44
2024-02-02T22:17:48.881Z,97932.75
2024-02-02T22:20:16.058Z,97930.22
2024-02-02T22:22:43.642Z,97932.91
2024-02-02T22:25:11.201Z,97931.31
2024-02-02T22:27:39.840Z,97931.38
2024-02-02T22:30:08.530Z,97937.44
2024-02-02T22:32:38.310Z,97935.81
2024-02-02T22:35:06.539Z,97945.25
2024-02-02T22:37:34.000Z,97929.00
2024-02-02T22:40:00.982Z,97926.41
2024-02-02T22:42:28.172Z,97926.38
2024-02-02T22:44:55.330Z,97922.94
2024-02-02T22:47:22.569Z,97907.53
2024-02-02T22:49:51.685Z,97915.28
2024-02-02T22:52:19.448Z,97912.75
2024-02-02T22:54:46.864Z,97900.88
2024-02-02T22:57:14.048Z,97902.66
2024-02-02T22:59:45.310Z,97906.16
2024-02-02T23:02:17.668Z,97893.41
2024-02-02T23:04:44.751Z,97889.19
2024-02-02T23:07:13.723Z,97879.75
2024-02-02T23:09:41.385Z,97868.72
2024-02-02T23:12:09.823Z,97867.03
2024-02-02T23:14:39.254Z,97873.81
2024-02-02T23:17:06.705Z,97848.16
2024-02-02T23:19:35.869Z,97845.66
2024-02-02T23:22:05.218Z,97843.09
2024-02-02T23:24:34.210Z,97829.44
2024-02-02T23:27:01.381Z,97825.25
2024-02-02T23:29:28.580Z,97815.06
2024-02-02T23:31:55.848Z,97819.34
2024-02-02T23:34:23.817Z,97822.84
2024-02-02T23:36:51.610Z,97820.25
2024-02-02T23:39:20.683Z,97808.34
2024-02-02T23:41:50.247Z,97811.81
2024-02-02T23:44:17.714Z,97815.28
2024-02-02T23:46:45.310Z,97805.97
2024-02-02T23:49:14.048Z,97801.66
2024-02-02T23:51:42.530Z,97809.34
2024-02-02T23:54:09.638Z,97804.25
2024-02-02T23:56:36.932Z,97821.34
2024-02-02T23:59:06.208Z,97817.09
